Briefing drone pour Beauzac

Rechercher une autre localisation

Conditions de vol :


Nous sommes le : Jeudi 11 août 2022
Il est 20:55 UTC (22:55 LT)

Lever de soleil : 04:13 UTC (06:13 LT)
Coucher de soleil : 19:23 UTC (21:23 LT)

Météo

L'essentiel des conditions de vol

VIGILANCE MÉTÉO FRANCE - Haute-Loire (43)
Pas de vigilances particulieres
METAR de LFMH
LFMH 112030Z AUTO VRB02KT CAVOK 27/10 Q1015

Date d'émission: 11/08/2022
Heure d'émission: 20:30 UTC
Vent: Variable 2 KT (4 km/h)
Visibilité horizontale: > 10 km
Plafond : Plafond et visibilité OK (CAVOK)
Température: 27 °C
Point de rosée: 10 °C
Humidité: 34%
Pression (QNH): 1015 hPa
TAF de LFMH
LFMH 161901Z 1619/1712 CNL

Conditions prévues :

Heure d'émission : Bulletin éffectué le 16 à 19:00 UTC
Prévision : Valide du 16 a 19:00 UTC au 17 a 12:00 UTC
Nuages : à 0ft (0 m)
WEBCAM POUR BEAUZAC

Réglementation

Voler en sécurité

CARTES AERONAUTIQUE 1/500.000
CARTE AZBA (Reseau basse altitude)
CARTES VAC (LFMH)
SUP AIP




Chargement des AIP...
NOTAM (BEAUZAC + Terrain à proximité / FIR )




Chargement des NOTAMS...
CONTACT PREFECTURE 43


Avertissement : Les données mises à disposition sont indicatives. Oxygène Drone ne pourra être tenu responsable de dégâts causés aux biens et aux personnes.